• vieta
  • image
  • image
  • image
mod_vvisit_countermod_vvisit_countermod_vvisit_countermod_vvisit_countermod_vvisit_countermod_vvisit_counter
mod_vvisit_counterŠiandien397
mod_vvisit_counterVakar756
mod_vvisit_counterŠią savaitę2083
mod_vvisit_counterPraėjusią savaitę5122
mod_vvisit_counterŠį mėnesį19901
mod_vvisit_counterPraėjusį mėnesį16929
mod_vvisit_counterViso982827

Mes turime: 5 svečius online
Jūsų IP: 54.166.141.69
 , 
Šiandien: Rugs 26, 2018
Oro uostas

AP V2 LT

 

Čia galite pamatyti trumpą filmuką apie įmonės Šiaulių oro uostas teikiamas paslaugas

Šiandien

Trečiadienis, 26 Rugsėjis 2018

Orų prognozė aviacijai

[source: ADDS]
METAR
EYSA 261120Z 21018KT 9999 -RA BKN017 OVC055 09/08 Q1019 WHT NOSIG =
TAF EYSA 261101Z 2612/2621 23020G36KT 5000 RA BR BKN005 OVC010 TEMPO 2612/2618 3000 SHRA BKN015CB
TAF
TAF EYSA 261101Z 2612/2621 23020G36KT 5000 RA BR BKN005 OVC010 TEMPO 2612/2618 3000 SHRA BKN015CB =
SR / SS: 04:21 / 16:16 UTC (EYSA 2018-09-26)

Paieška

Lankytojai

Mes turime 4 svečius online

tic logo lt